sensor_id;sensor_type;location;lat;lon;timestamp;temperature;humidity
7002;DHT22;3541;53.230;10.518;2022-09-12T00:01:04;15.20;99.90
7002;DHT22;3541;53.230;10.518;2022-09-12T00:03:33;15.20;99.90
7002;DHT22;3541;53.230;10.518;2022-09-12T00:06:00;15.20;99.90
7002;DHT22;3541;53.230;10.518;2022-09-12T00:08:27;15.10;99.90
7002;DHT22;3541;53.230;10.518;2022-09-12T00:10:53;15.10;99.90
7002;DHT22;3541;53.230;10.518;2022-09-12T00:13:20;15.10;99.90
7002;DHT22;3541;53.230;10.518;2022-09-12T00:15:46;15.10;99.90
7002;DHT22;3541;53.230;10.518;2022-09-12T00:18:15;15.10;99.90
7002;DHT22;3541;53.230;10.518;2022-09-12T00:20:44;15.10;99.90
7002;DHT22;3541;53.230;10.518;2022-09-12T00:23:12;15.10;99.90
7002;DHT22;3541;53.230;10.518;2022-09-12T00:25:43;15.10;99.90
7002;DHT22;3541;53.230;10.518;2022-09-12T00:28:10;15.00;99.90
7002;DHT22;3541;53.230;10.518;2022-09-12T00:30:40;15.00;99.90
7002;DHT22;3541;53.230;10.518;2022-09-12T00:33:07;15.00;99.90
7002;DHT22;3541;53.230;10.518;2022-09-12T00:35:39;14.90;99.90
7002;DHT22;3541;53.230;10.518;2022-09-12T00:38:07;14.90;99.90
7002;DHT22;3541;53.230;10.518;2022-09-12T00:40:34;14.80;99.90
7002;DHT22;3541;53.230;10.518;2022-09-12T00:43:00;14.80;99.90
7002;DHT22;3541;53.230;10.518;2022-09-12T00:45:28;14.80;99.90
7002;DHT22;3541;53.230;10.518;2022-09-12T00:47:58;14.80;99.90
7002;DHT22;3541;53.230;10.518;2022-09-12T00:50:26;14.80;99.90
7002;DHT22;3541;53.230;10.518;2022-09-12T00:52:56;14.80;99.90
7002;DHT22;3541;53.230;10.518;2022-09-12T00:55:27;14.80;99.90
7002;DHT22;3541;53.230;10.518;2022-09-12T00:57:56;14.90;99.90
7002;DHT22;3541;53.230;10.518;2022-09-12T01:00:26;14.80;99.90
7002;DHT22;3541;53.230;10.518;2022-09-12T01:02:55;14.80;99.90
7002;DHT22;3541;53.230;10.518;2022-09-12T01:05:23;14.80;99.90
7002;DHT22;3541;53.230;10.518;2022-09-12T01:07:51;14.80;99.90
7002;DHT22;3541;53.230;10.518;2022-09-12T01:10:19;14.80;99.90
7002;DHT22;3541;53.230;10.518;2022-09-12T01:12:47;14.70;99.90
7002;DHT22;3541;53.230;10.518;2022-09-12T01:15:14;14.70;99.90
7002;DHT22;3541;53.230;10.518;2022-09-12T01:17:50;14.70;99.90
7002;DHT22;3541;53.230;10.518;2022-09-12T01:23:50;14.60;99.90
7002;DHT22;3541;53.230;10.518;2022-09-12T01:29:35;14.50;99.90
7002;DHT22;3541;53.230;10.518;2022-09-12T01:32:13;14.50;99.90
7002;DHT22;3541;53.230;10.518;2022-09-12T01:34:45;14.50;99.90
7002;DHT22;3541;53.230;10.518;2022-09-12T01:37:18;14.40;99.90
7002;DHT22;3541;53.230;10.518;2022-09-12T01:39:57;14.50;99.90
7002;DHT22;3541;53.230;10.518;2022-09-12T01:42:31;14.50;99.90
7002;DHT22;3541;53.230;10.518;2022-09-12T01:45:02;14.50;99.90
7002;DHT22;3541;53.230;10.518;2022-09-12T01:47:38;14.40;99.90
7002;DHT22;3541;53.230;10.518;2022-09-12T01:50:08;14.40;99.90
7002;DHT22;3541;53.230;10.518;2022-09-12T01:52:40;14.40;99.90
7002;DHT22;3541;53.230;10.518;2022-09-12T01:55:11;14.40;99.90
7002;DHT22;3541;53.230;10.518;2022-09-12T01:57:44;14.30;99.90
7002;DHT22;3541;53.230;10.518;2022-09-12T02:00:12;14.30;99.90
7002;DHT22;3541;53.230;10.518;2022-09-12T02:02:44;14.40;99.90
7002;DHT22;3541;53.230;10.518;2022-09-12T02:05:21;14.40;99.90
7002;DHT22;3541;53.230;10.518;2022-09-12T02:07:54;14.40;99.90
7002;DHT22;3541;53.230;10.518;2022-09-12T02:10:24;14.40;99.90
7002;DHT22;3541;53.230;10.518;2022-09-12T02:12:53;14.30;99.90
7002;DHT22;3541;53.230;10.518;2022-09-12T02:15:25;14.30;99.90
7002;DHT22;3541;53.230;10.518;2022-09-12T02:17:55;14.30;99.90
7002;DHT22;3541;53.230;10.518;2022-09-12T02:20:25;14.30;99.90
7002;DHT22;3541;53.230;10.518;2022-09-12T02:22:55;14.40;99.90
7002;DHT22;3541;53.230;10.518;2022-09-12T02:25:24;14.30;99.90
7002;DHT22;3541;53.230;10.518;2022-09-12T02:27:54;14.20;99.90
7002;DHT22;3541;53.230;10.518;2022-09-12T02:30:23;14.20;99.90
7002;DHT22;3541;53.230;10.518;2022-09-12T02:32:59;14.30;99.90
7002;DHT22;3541;53.230;10.518;2022-09-12T02:35:32;14.20;99.90
7002;DHT22;3541;53.230;10.518;2022-09-12T02:38:05;14.20;99.90
7002;DHT22;3541;53.230;10.518;2022-09-12T02:40:35;14.10;99.90
7002;DHT22;3541;53.230;10.518;2022-09-12T02:43:03;14.10;99.90
7002;DHT22;3541;53.230;10.518;2022-09-12T02:45:31;14.10;99.90
7002;DHT22;3541;53.230;10.518;2022-09-12T02:48:03;14.10;99.90
7002;DHT22;3541;53.230;10.518;2022-09-12T02:50:31;14.10;99.90
7002;DHT22;3541;53.230;10.518;2022-09-12T02:52:58;14.00;99.90
7002;DHT22;3541;53.230;10.518;2022-09-12T02:55:30;14.00;99.90
7002;DHT22;3541;53.230;10.518;2022-09-12T02:57:58;14.00;99.90
7002;DHT22;3541;53.230;10.518;2022-09-12T03:00:26;14.00;99.90
7002;DHT22;3541;53.230;10.518;2022-09-12T03:03:11;14.00;99.90
7002;DHT22;3541;53.230;10.518;2022-09-12T03:05:49;14.00;99.90
7002;DHT22;3541;53.230;10.518;2022-09-12T03:08:43;14.00;99.90
7002;DHT22;3541;53.230;10.518;2022-09-12T03:11:26;14.00;99.90
7002;DHT22;3541;53.230;10.518;2022-09-12T03:14:04;14.00;99.90
7002;DHT22;3541;53.230;10.518;2022-09-12T03:16:40;13.90;99.90
7002;DHT22;3541;53.230;10.518;2022-09-12T03:19:17;13.90;99.90
7002;DHT22;3541;53.230;10.518;2022-09-12T03:21:53;13.90;99.90
7002;DHT22;3541;53.230;10.518;2022-09-12T03:24:28;14.00;99.90
7002;DHT22;3541;53.230;10.518;2022-09-12T03:27:01;13.90;99.90
7002;DHT22;3541;53.230;10.518;2022-09-12T03:29:30;13.90;99.90
7002;DHT22;3541;53.230;10.518;2022-09-12T03:31:58;13.90;99.90
7002;DHT22;3541;53.230;10.518;2022-09-12T03:34:26;13.90;99.90
7002;DHT22;3541;53.230;10.518;2022-09-12T03:36:53;13.80;99.90
7002;DHT22;3541;53.230;10.518;2022-09-12T03:39:21;13.80;99.90
7002;DHT22;3541;53.230;10.518;2022-09-12T03:41:48;13.80;99.90
7002;DHT22;3541;53.230;10.518;2022-09-12T03:44:15;13.80;99.90
7002;DHT22;3541;53.230;10.518;2022-09-12T03:46:42;13.70;99.90
7002;DHT22;3541;53.230;10.518;2022-09-12T03:49:09;13.70;99.90
7002;DHT22;3541;53.230;10.518;2022-09-12T03:51:37;13.70;99.90
7002;DHT22;3541;53.230;10.518;2022-09-12T03:54:04;13.70;99.90
7002;DHT22;3541;53.230;10.518;2022-09-12T03:56:31;13.70;99.90
7002;DHT22;3541;53.230;10.518;2022-09-12T03:58:58;13.70;99.90
7002;DHT22;3541;53.230;10.518;2022-09-12T04:01:25;13.70;99.90
7002;DHT22;3541;53.230;10.518;2022-09-12T04:03:52;13.70;99.90
7002;DHT22;3541;53.230;10.518;2022-09-12T04:06:20;13.70;99.90
7002;DHT22;3541;53.230;10.518;2022-09-12T04:08:50;13.70;99.90
7002;DHT22;3541;53.230;10.518;2022-09-12T04:11:17;13.70;99.90
7002;DHT22;3541;53.230;10.518;2022-09-12T04:13:45;13.70;99.90
7002;DHT22;3541;53.230;10.518;2022-09-12T04:16:12;13.70;99.90
7002;DHT22;3541;53.230;10.518;2022-09-12T04:18:39;13.70;99.90
7002;DHT22;3541;53.230;10.518;2022-09-12T04:21:08;13.70;99.90
7002;DHT22;3541;53.230;10.518;2022-09-12T04:23:35;13.70;99.90
7002;DHT22;3541;53.230;10.518;2022-09-12T04:26:04;13.70;99.90
7002;DHT22;3541;53.230;10.518;2022-09-12T04:28:32;13.70;99.90
7002;DHT22;3541;53.230;10.518;2022-09-12T04:31:01;13.60;99.90
7002;DHT22;3541;53.230;10.518;2022-09-12T04:33:28;13.60;99.90
7002;DHT22;3541;53.230;10.518;2022-09-12T04:35:54;13.70;99.90
7002;DHT22;3541;53.230;10.518;2022-09-12T04:38:21;13.80;99.90
7002;DHT22;3541;53.230;10.518;2022-09-12T04:40:49;13.80;99.90
7002;DHT22;3541;53.230;10.518;2022-09-12T04:43:17;13.80;99.90
7002;DHT22;3541;53.230;10.518;2022-09-12T04:45:43;13.80;99.90
7002;DHT22;3541;53.230;10.518;2022-09-12T04:48:10;13.80;99.90
7002;DHT22;3541;53.230;10.518;2022-09-12T04:50:37;13.80;99.90
7002;DHT22;3541;53.230;10.518;2022-09-12T04:53:03;13.80;99.90
7002;DHT22;3541;53.230;10.518;2022-09-12T04:55:30;13.80;99.90
7002;DHT22;3541;53.230;10.518;2022-09-12T04:57:59;13.70;99.90
7002;DHT22;3541;53.230;10.518;2022-09-12T05:00:27;13.70;99.90
7002;DHT22;3541;53.230;10.518;2022-09-12T05:02:54;13.70;99.90
7002;DHT22;3541;53.230;10.518;2022-09-12T05:05:21;13.70;99.90
7002;DHT22;3541;53.230;10.518;2022-09-12T05:07:47;13.70;99.90
7002;DHT22;3541;53.230;10.518;2022-09-12T05:10:14;13.70;99.90
7002;DHT22;3541;53.230;10.518;2022-09-12T05:12:41;13.70;99.90
7002;DHT22;3541;53.230;10.518;2022-09-12T05:15:08;13.70;99.90
7002;DHT22;3541;53.230;10.518;2022-09-12T05:17:36;13.70;99.90
7002;DHT22;3541;53.230;10.518;2022-09-12T05:20:03;13.70;99.90
7002;DHT22;3541;53.230;10.518;2022-09-12T05:22:30;13.70;99.90
7002;DHT22;3541;53.230;10.518;2022-09-12T05:24:57;13.70;99.90
7002;DHT22;3541;53.230;10.518;2022-09-12T05:27:23;13.70;99.90
7002;DHT22;3541;53.230;10.518;2022-09-12T05:29:50;13.70;99.90
7002;DHT22;3541;53.230;10.518;2022-09-12T05:32:17;13.70;99.90
7002;DHT22;3541;53.230;10.518;2022-09-12T05:34:44;13.70;99.90
7002;DHT22;3541;53.230;10.518;2022-09-12T05:37:11;13.70;99.90
7002;DHT22;3541;53.230;10.518;2022-09-12T05:39:38;13.80;99.90
7002;DHT22;3541;53.230;10.518;2022-09-12T05:42:05;13.80;99.90
7002;DHT22;3541;53.230;10.518;2022-09-12T05:44:31;13.70;99.90
7002;DHT22;3541;53.230;10.518;2022-09-12T05:46:58;13.80;99.90
7002;DHT22;3541;53.230;10.518;2022-09-12T05:49:25;13.80;99.90
7002;DHT22;3541;53.230;10.518;2022-09-12T05:51:53;13.90;99.90
7002;DHT22;3541;53.230;10.518;2022-09-12T05:54:19;13.80;99.90
7002;DHT22;3541;53.230;10.518;2022-09-12T05:56:47;13.90;99.90
7002;DHT22;3541;53.230;10.518;2022-09-12T05:59:15;14.00;99.90
7002;DHT22;3541;53.230;10.518;2022-09-12T06:01:42;14.00;99.90
7002;DHT22;3541;53.230;10.518;2022-09-12T06:04:09;14.00;99.90
7002;DHT22;3541;53.230;10.518;2022-09-12T06:06:38;14.00;99.90
7002;DHT22;3541;53.230;10.518;2022-09-12T06:09:07;14.00;99.90
7002;DHT22;3541;53.230;10.518;2022-09-12T06:11:35;14.10;99.90
7002;DHT22;3541;53.230;10.518;2022-09-12T06:14:04;14.10;99.90
7002;DHT22;3541;53.230;10.518;2022-09-12T06:16:32;14.20;99.90
7002;DHT22;3541;53.230;10.518;2022-09-12T06:19:01;14.30;99.90
7002;DHT22;3541;53.230;10.518;2022-09-12T06:21:28;14.30;99.90
7002;DHT22;3541;53.230;10.518;2022-09-12T06:23:57;14.40;99.90
7002;DHT22;3541;53.230;10.518;2022-09-12T06:26:25;14.40;99.90
7002;DHT22;3541;53.230;10.518;2022-09-12T06:28:54;14.40;99.90
7002;DHT22;3541;53.230;10.518;2022-09-12T06:31:24;14.40;99.90
7002;DHT22;3541;53.230;10.518;2022-09-12T06:33:52;14.40;99.90
7002;DHT22;3541;53.230;10.518;2022-09-12T06:36:21;14.50;99.90
7002;DHT22;3541;53.230;10.518;2022-09-12T06:38:52;14.50;99.90
7002;DHT22;3541;53.230;10.518;2022-09-12T06:41:20;14.60;99.90
7002;DHT22;3541;53.230;10.518;2022-09-12T06:43:48;14.60;99.90
7002;DHT22;3541;53.230;10.518;2022-09-12T06:46:15;14.70;99.90
7002;DHT22;3541;53.230;10.518;2022-09-12T06:48:42;14.80;99.90
7002;DHT22;3541;53.230;10.518;2022-09-12T06:51:10;14.80;99.90
7002;DHT22;3541;53.230;10.518;2022-09-12T06:53:38;14.80;99.90
7002;DHT22;3541;53.230;10.518;2022-09-12T06:56:07;14.80;99.90
7002;DHT22;3541;53.230;10.518;2022-09-12T06:58:35;14.80;99.90
7002;DHT22;3541;53.230;10.518;2022-09-12T07:01:04;14.90;99.90
7002;DHT22;3541;53.230;10.518;2022-09-12T07:03:32;14.90;99.90
7002;DHT22;3541;53.230;10.518;2022-09-12T07:06:02;15.00;99.90
7002;DHT22;3541;53.230;10.518;2022-09-12T07:08:28;15.00;99.90
7002;DHT22;3541;53.230;10.518;2022-09-12T07:10:55;15.00;99.90
7002;DHT22;3541;53.230;10.518;2022-09-12T07:13:23;15.10;99.90
7002;DHT22;3541;53.230;10.518;2022-09-12T07:15:50;15.10;99.90
7002;DHT22;3541;53.230;10.518;2022-09-12T07:18:18;15.20;99.90
7002;DHT22;3541;53.230;10.518;2022-09-12T07:20:45;15.20;99.90
7002;DHT22;3541;53.230;10.518;2022-09-12T07:23:12;15.30;99.90
7002;DHT22;3541;53.230;10.518;2022-09-12T07:25:38;15.30;99.90
7002;DHT22;3541;53.230;10.518;2022-09-12T07:28:05;15.40;99.90
7002;DHT22;3541;53.230;10.518;2022-09-12T07:30:32;15.50;99.90
7002;DHT22;3541;53.230;10.518;2022-09-12T07:32:59;15.50;99.90
7002;DHT22;3541;53.230;10.518;2022-09-12T07:35:27;15.50;99.90
7002;DHT22;3541;53.230;10.518;2022-09-12T07:37:53;15.60;99.90
7002;DHT22;3541;53.230;10.518;2022-09-12T07:40:20;15.70;99.90
7002;DHT22;3541;53.230;10.518;2022-09-12T07:42:47;15.70;99.90
7002;DHT22;3541;53.230;10.518;2022-09-12T07:45:14;15.80;99.90
7002;DHT22;3541;53.230;10.518;2022-09-12T07:47:40;15.90;99.90
7002;DHT22;3541;53.230;10.518;2022-09-12T07:50:07;15.90;99.90
7002;DHT22;3541;53.230;10.518;2022-09-12T07:52:36;16.00;99.90
7002;DHT22;3541;53.230;10.518;2022-09-12T07:55:03;16.00;99.90
7002;DHT22;3541;53.230;10.518;2022-09-12T07:57:29;16.10;99.90
7002;DHT22;3541;53.230;10.518;2022-09-12T07:59:56;16.20;99.90
7002;DHT22;3541;53.230;10.518;2022-09-12T08:02:22;16.30;99.90
7002;DHT22;3541;53.230;10.518;2022-09-12T08:04:49;16.30;99.90
7002;DHT22;3541;53.230;10.518;2022-09-12T08:07:16;16.40;99.90
7002;DHT22;3541;53.230;10.518;2022-09-12T08:09:45;16.40;99.90
7002;DHT22;3541;53.230;10.518;2022-09-12T08:12:11;16.50;99.90
7002;DHT22;3541;53.230;10.518;2022-09-12T08:14:38;16.50;99.90
7002;DHT22;3541;53.230;10.518;2022-09-12T08:17:05;16.60;99.90
7002;DHT22;3541;53.230;10.518;2022-09-12T08:19:31;16.60;99.90
7002;DHT22;3541;53.230;10.518;2022-09-12T08:21:58;16.70;99.90
7002;DHT22;3541;53.230;10.518;2022-09-12T08:24:25;16.80;99.90
7002;DHT22;3541;53.230;10.518;2022-09-12T08:26:53;16.80;99.90
7002;DHT22;3541;53.230;10.518;2022-09-12T08:29:20;16.80;99.90
7002;DHT22;3541;53.230;10.518;2022-09-12T08:31:46;16.90;99.90
7002;DHT22;3541;53.230;10.518;2022-09-12T08:34:13;17.00;99.90
7002;DHT22;3541;53.230;10.518;2022-09-12T08:36:41;17.10;99.90
7002;DHT22;3541;53.230;10.518;2022-09-12T08:39:10;17.10;99.90
7002;DHT22;3541;53.230;10.518;2022-09-12T08:41:39;17.20;99.90
7002;DHT22;3541;53.230;10.518;2022-09-12T08:44:29;17.20;99.90
7002;DHT22;3541;53.230;10.518;2022-09-12T08:47:18;17.30;99.90
7002;DHT22;3541;53.230;10.518;2022-09-12T08:49:52;17.40;99.90
7002;DHT22;3541;53.230;10.518;2022-09-12T08:52:24;17.40;99.90
7002;DHT22;3541;53.230;10.518;2022-09-12T08:54:53;17.50;99.90
7002;DHT22;3541;53.230;10.518;2022-09-12T08:57:21;17.60;99.90
7002;DHT22;3541;53.230;10.518;2022-09-12T08:59:50;17.60;99.90
7002;DHT22;3541;53.230;10.518;2022-09-12T09:02:31;17.70;99.90
7002;DHT22;3541;53.230;10.518;2022-09-12T09:05:10;17.70;99.90
7002;DHT22;3541;53.230;10.518;2022-09-12T09:07:56;17.70;99.90
7002;DHT22;3541;53.230;10.518;2022-09-12T09:10:31;17.80;99.90
7002;DHT22;3541;53.230;10.518;2022-09-12T09:13:06;17.90;99.90
7002;DHT22;3541;53.230;10.518;2022-09-12T09:15:43;17.90;99.90
7002;DHT22;3541;53.230;10.518;2022-09-12T09:18:15;18.00;99.90
7002;DHT22;3541;53.230;10.518;2022-09-12T09:20:47;18.00;99.90
7002;DHT22;3541;53.230;10.518;2022-09-12T09:23:20;18.00;99.90
7002;DHT22;3541;53.230;10.518;2022-09-12T09:25:51;18.10;99.90
7002;DHT22;3541;53.230;10.518;2022-09-12T09:28:22;18.20;99.90
7002;DHT22;3541;53.230;10.518;2022-09-12T09:30:52;18.20;99.90
7002;DHT22;3541;53.230;10.518;2022-09-12T09:33:21;18.20;99.90
7002;DHT22;3541;53.230;10.518;2022-09-12T09:35:55;18.30;99.90
7002;DHT22;3541;53.230;10.518;2022-09-12T09:38:32;18.40;99.90
7002;DHT22;3541;53.230;10.518;2022-09-12T09:41:10;18.50;99.90
7002;DHT22;3541;53.230;10.518;2022-09-12T09:43:41;18.50;99.90
7002;DHT22;3541;53.230;10.518;2022-09-12T09:46:09;18.60;99.90
7002;DHT22;3541;53.230;10.518;2022-09-12T09:48:40;18.60;99.90
7002;DHT22;3541;53.230;10.518;2022-09-12T09:51:08;18.70;99.90
7002;DHT22;3541;53.230;10.518;2022-09-12T09:53:39;18.80;99.90
7002;DHT22;3541;53.230;10.518;2022-09-12T09:56:10;18.80;99.90
7002;DHT22;3541;53.230;10.518;2022-09-12T09:58:38;18.90;99.90
7002;DHT22;3541;53.230;10.518;2022-09-12T10:01:13;18.90;99.90
7002;DHT22;3541;53.230;10.518;2022-09-12T10:03:47;19.00;99.90
7002;DHT22;3541;53.230;10.518;2022-09-12T10:06:24;19.10;99.90
7002;DHT22;3541;53.230;10.518;2022-09-12T10:09:04;19.20;99.90
7002;DHT22;3541;53.230;10.518;2022-09-12T10:11:32;19.20;99.90
7002;DHT22;3541;53.230;10.518;2022-09-12T10:13:59;19.30;99.90
7002;DHT22;3541;53.230;10.518;2022-09-12T10:16:29;19.30;99.90
7002;DHT22;3541;53.230;10.518;2022-09-12T10:18:57;19.40;99.90
7002;DHT22;3541;53.230;10.518;2022-09-12T10:21:32;19.40;99.90
7002;DHT22;3541;53.230;10.518;2022-09-12T10:24:04;19.50;99.90
7002;DHT22;3541;53.230;10.518;2022-09-12T10:26:34;19.40;99.90
7002;DHT22;3541;53.230;10.518;2022-09-12T10:29:11;19.50;99.90
7002;DHT22;3541;53.230;10.518;2022-09-12T10:31:47;19.50;99.90
7002;DHT22;3541;53.230;10.518;2022-09-12T10:34:21;19.60;99.90
7002;DHT22;3541;53.230;10.518;2022-09-12T10:36:51;19.60;99.90
7002;DHT22;3541;53.230;10.518;2022-09-12T10:39:19;19.60;99.90
7002;DHT22;3541;53.230;10.518;2022-09-12T10:41:46;19.70;99.90
7002;DHT22;3541;53.230;10.518;2022-09-12T10:44:16;19.70;99.90
7002;DHT22;3541;53.230;10.518;2022-09-12T10:46:44;19.70;99.90
7002;DHT22;3541;53.230;10.518;2022-09-12T10:49:20;19.70;99.90
7002;DHT22;3541;53.230;10.518;2022-09-12T10:51:48;19.70;99.90
7002;DHT22;3541;53.230;10.518;2022-09-12T10:54:16;19.80;99.90
7002;DHT22;3541;53.230;10.518;2022-09-12T10:56:51;19.90;99.90
7002;DHT22;3541;53.230;10.518;2022-09-12T10:59:32;19.90;99.90
7002;DHT22;3541;53.230;10.518;2022-09-12T11:02:14;19.90;99.90
7002;DHT22;3541;53.230;10.518;2022-09-12T11:04:54;20.00;99.90
7002;DHT22;3541;53.230;10.518;2022-09-12T11:07:37;20.10;99.90
7002;DHT22;3541;53.230;10.518;2022-09-12T11:10:18;20.10;99.90
7002;DHT22;3541;53.230;10.518;2022-09-12T11:12:50;20.20;99.90
7002;DHT22;3541;53.230;10.518;2022-09-12T11:15:45;20.20;99.90
7002;DHT22;3541;53.230;10.518;2022-09-12T11:18:25;20.30;99.90
7002;DHT22;3541;53.230;10.518;2022-09-12T11:21:08;20.30;99.90
7002;DHT22;3541;53.230;10.518;2022-09-12T11:23:55;20.40;99.90
7002;DHT22;3541;53.230;10.518;2022-09-12T11:26:39;20.50;99.90
7002;DHT22;3541;53.230;10.518;2022-09-12T11:29:15;20.50;99.90
7002;DHT22;3541;53.230;10.518;2022-09-12T11:32:03;20.50;99.90
7002;DHT22;3541;53.230;10.518;2022-09-12T11:34:43;20.60;99.90
7002;DHT22;3541;53.230;10.518;2022-09-12T11:37:30;20.70;99.90
7002;DHT22;3541;53.230;10.518;2022-09-12T11:40:06;20.90;99.90
7002;DHT22;3541;53.230;10.518;2022-09-12T11:42:41;20.90;99.90
7002;DHT22;3541;53.230;10.518;2022-09-12T11:45:14;20.90;99.90
7002;DHT22;3541;53.230;10.518;2022-09-12T11:47:44;21.00;99.90
7002;DHT22;3541;53.230;10.518;2022-09-12T11:50:21;21.00;99.90
7002;DHT22;3541;53.230;10.518;2022-09-12T11:52:52;21.00;99.90
7002;DHT22;3541;53.230;10.518;2022-09-12T11:55:24;21.00;99.90
7002;DHT22;3541;53.230;10.518;2022-09-12T11:57:54;21.00;99.90
7002;DHT22;3541;53.230;10.518;2022-09-12T12:00:25;21.10;99.90
7002;DHT22;3541;53.230;10.518;2022-09-12T12:02:58;21.20;99.90
7002;DHT22;3541;53.230;10.518;2022-09-12T12:05:33;21.30;99.90
7002;DHT22;3541;53.230;10.518;2022-09-12T12:08:04;21.30;99.90
7002;DHT22;3541;53.230;10.518;2022-09-12T12:10:35;21.30;99.90
7002;DHT22;3541;53.230;10.518;2022-09-12T12:13:06;21.30;99.90
7002;DHT22;3541;53.230;10.518;2022-09-12T12:15:35;21.40;99.90
7002;DHT22;3541;53.230;10.518;2022-09-12T12:18:05;21.40;99.90
7002;DHT22;3541;53.230;10.518;2022-09-12T12:20:34;21.50;99.90
7002;DHT22;3541;53.230;10.518;2022-09-12T12:23:01;21.40;99.90
7002;DHT22;3541;53.230;10.518;2022-09-12T12:25:40;21.40;99.90
7002;DHT22;3541;53.230;10.518;2022-09-12T12:28:55;21.40;99.90
7002;DHT22;3541;53.230;10.518;2022-09-12T12:31:23;21.30;99.90
7002;DHT22;3541;53.230;10.518;2022-09-12T12:33:59;21.30;99.90
7002;DHT22;3541;53.230;10.518;2022-09-12T12:36:37;21.30;99.90
7002;DHT22;3541;53.230;10.518;2022-09-12T12:42:06;21.20;99.90
7002;DHT22;3541;53.230;10.518;2022-09-12T12:44:49;21.30;99.90
7002;DHT22;3541;53.230;10.518;2022-09-12T12:47:20;21.30;99.90
7002;DHT22;3541;53.230;10.518;2022-09-12T12:49:52;21.30;99.90
7002;DHT22;3541;53.230;10.518;2022-09-12T12:52:21;21.30;99.90
7002;DHT22;3541;53.230;10.518;2022-09-12T12:54:51;21.30;99.90
7002;DHT22;3541;53.230;10.518;2022-09-12T12:57:29;21.30;99.90
7002;DHT22;3541;53.230;10.518;2022-09-12T13:00:00;21.30;99.90
7002;DHT22;3541;53.230;10.518;2022-09-12T13:02:31;21.30;99.90
7002;DHT22;3541;53.230;10.518;2022-09-12T13:05:03;21.20;99.90
7002;DHT22;3541;53.230;10.518;2022-09-12T13:07:36;21.20;99.90
7002;DHT22;3541;53.230;10.518;2022-09-12T13:10:05;21.20;99.90
7002;DHT22;3541;53.230;10.518;2022-09-12T13:12:35;21.20;99.90
7002;DHT22;3541;53.230;10.518;2022-09-12T13:15:27;21.20;99.90
7002;DHT22;3541;53.230;10.518;2022-09-12T13:17:58;21.30;99.90
7002;DHT22;3541;53.230;10.518;2022-09-12T13:20:29;21.30;99.90
7002;DHT22;3541;53.230;10.518;2022-09-12T13:22:57;21.40;99.90
7002;DHT22;3541;53.230;10.518;2022-09-12T13:25:27;21.50;99.90
7002;DHT22;3541;53.230;10.518;2022-09-12T13:28:00;21.50;99.90
7002;DHT22;3541;53.230;10.518;2022-09-12T13:30:27;21.50;99.90
7002;DHT22;3541;53.230;10.518;2022-09-12T13:33:00;21.50;99.90
7002;DHT22;3541;53.230;10.518;2022-09-12T13:35:38;21.60;99.90
7002;DHT22;3541;53.230;10.518;2022-09-12T13:38:11;21.70;99.90
7002;DHT22;3541;53.230;10.518;2022-09-12T13:40:52;21.70;99.90
7002;DHT22;3541;53.230;10.518;2022-09-12T13:43:28;21.60;99.90
7002;DHT22;3541;53.230;10.518;2022-09-12T13:46:01;21.50;99.90
7002;DHT22;3541;53.230;10.518;2022-09-12T13:48:29;21.40;99.90
7002;DHT22;3541;53.230;10.518;2022-09-12T13:50:58;21.40;99.90
7002;DHT22;3541;53.230;10.518;2022-09-12T13:53:29;21.50;99.90
7002;DHT22;3541;53.230;10.518;2022-09-12T13:55:59;21.90;99.90
7002;DHT22;3541;53.230;10.518;2022-09-12T13:58:29;22.30;99.90
7002;DHT22;3541;53.230;10.518;2022-09-12T14:01:01;22.50;99.90
7002;DHT22;3541;53.230;10.518;2022-09-12T14:03:33;22.60;99.90
7002;DHT22;3541;53.230;10.518;2022-09-12T14:06:18;22.60;99.90
7002;DHT22;3541;53.230;10.518;2022-09-12T14:08:45;22.50;99.90
7002;DHT22;3541;53.230;10.518;2022-09-12T14:11:22;22.30;99.90
7002;DHT22;3541;53.230;10.518;2022-09-12T14:13:50;22.20;99.90
7002;DHT22;3541;53.230;10.518;2022-09-12T14:16:17;22.00;99.90
7002;DHT22;3541;53.230;10.518;2022-09-12T14:18:47;22.00;99.90
7002;DHT22;3541;53.230;10.518;2022-09-12T14:21:25;22.00;99.90
7002;DHT22;3541;53.230;10.518;2022-09-12T14:23:56;22.40;99.90
7002;DHT22;3541;53.230;10.518;2022-09-12T14:26:24;22.50;99.90
7002;DHT22;3541;53.230;10.518;2022-09-12T14:28:52;22.50;99.90
7002;DHT22;3541;53.230;10.518;2022-09-12T14:31:22;22.40;99.90
7002;DHT22;3541;53.230;10.518;2022-09-12T14:33:52;22.40;99.90
7002;DHT22;3541;53.230;10.518;2022-09-12T14:36:22;22.20;99.90
7002;DHT22;3541;53.230;10.518;2022-09-12T14:38:51;22.20;99.90
7002;DHT22;3541;53.230;10.518;2022-09-12T14:41:25;22.10;99.90
7002;DHT22;3541;53.230;10.518;2022-09-12T14:43:56;22.10;99.90
7002;DHT22;3541;53.230;10.518;2022-09-12T14:46:26;22.00;99.90
7002;DHT22;3541;53.230;10.518;2022-09-12T14:48:59;22.00;99.90
7002;DHT22;3541;53.230;10.518;2022-09-12T14:51:31;22.10;99.90
7002;DHT22;3541;53.230;10.518;2022-09-12T14:53:59;22.10;99.90
7002;DHT22;3541;53.230;10.518;2022-09-12T14:56:38;22.10;99.90
7002;DHT22;3541;53.230;10.518;2022-09-12T14:59:28;22.20;99.90
7002;DHT22;3541;53.230;10.518;2022-09-12T15:02:25;22.50;99.90
7002;DHT22;3541;53.230;10.518;2022-09-12T15:05:14;22.90;99.90
7002;DHT22;3541;53.230;10.518;2022-09-12T15:07:42;23.20;99.90
7002;DHT22;3541;53.230;10.518;2022-09-12T15:10:16;23.40;99.90
7002;DHT22;3541;53.230;10.518;2022-09-12T15:12:46;23.50;99.90
7002;DHT22;3541;53.230;10.518;2022-09-12T15:15:15;23.60;99.90
7002;DHT22;3541;53.230;10.518;2022-09-12T15:17:42;23.70;99.90
7002;DHT22;3541;53.230;10.518;2022-09-12T15:20:11;23.80;99.90
7002;DHT22;3541;53.230;10.518;2022-09-12T15:22:38;23.80;99.90
7002;DHT22;3541;53.230;10.518;2022-09-12T15:25:06;23.90;99.90
7002;DHT22;3541;53.230;10.518;2022-09-12T15:27:33;23.90;99.90
7002;DHT22;3541;53.230;10.518;2022-09-12T15:29:59;23.70;99.90
7002;DHT22;3541;53.230;10.518;2022-09-12T15:32:28;23.50;99.90
7002;DHT22;3541;53.230;10.518;2022-09-12T15:34:55;23.20;99.90
7002;DHT22;3541;53.230;10.518;2022-09-12T15:37:23;23.20;99.90
7002;DHT22;3541;53.230;10.518;2022-09-12T15:39:51;23.20;99.90
7002;DHT22;3541;53.230;10.518;2022-09-12T15:42:26;23.20;99.90
7002;DHT22;3541;53.230;10.518;2022-09-12T15:44:53;23.00;99.90
7002;DHT22;3541;53.230;10.518;2022-09-12T15:47:20;22.90;99.90
7002;DHT22;3541;53.230;10.518;2022-09-12T15:49:47;22.90;99.90
7002;DHT22;3541;53.230;10.518;2022-09-12T15:52:15;22.90;99.90
7002;DHT22;3541;53.230;10.518;2022-09-12T15:54:43;22.90;99.90
7002;DHT22;3541;53.230;10.518;2022-09-12T15:57:10;22.90;99.90
7002;DHT22;3541;53.230;10.518;2022-09-12T15:59:36;22.90;99.90
7002;DHT22;3541;53.230;10.518;2022-09-12T16:02:03;22.80;99.90
7002;DHT22;3541;53.230;10.518;2022-09-12T16:04:30;22.80;99.90
7002;DHT22;3541;53.230;10.518;2022-09-12T16:06:57;22.80;99.90
7002;DHT22;3541;53.230;10.518;2022-09-12T16:09:24;23.00;99.90
7002;DHT22;3541;53.230;10.518;2022-09-12T16:11:51;23.30;99.90
7002;DHT22;3541;53.230;10.518;2022-09-12T16:14:18;23.50;99.90
7002;DHT22;3541;53.230;10.518;2022-09-12T16:16:51;23.60;99.90